createdAt,value
2017-11-04T00:00:17.322Z,84.56
2017-11-04T00:01:27.787Z,84.66
2017-11-04T00:02:38.709Z,84.95
2017-11-04T00:03:49.165Z,84.56
2017-11-04T00:04:59.637Z,84.95
2017-11-04T00:06:10.149Z,84.76
2017-11-04T00:07:20.822Z,84.85
2017-11-04T00:08:31.306Z,84.62
2017-11-04T00:09:41.837Z,84.66
2017-11-04T00:10:52.340Z,85.04
2017-11-04T00:12:02.783Z,84.81
2017-11-04T00:13:13.449Z,85.19
2017-11-04T00:14:24.917Z,85.24
2017-11-04T00:15:35.423Z,85.38
2017-11-04T00:16:45.964Z,85.19
2017-11-04T00:17:56.463Z,85.57
2017-11-04T00:19:07.174Z,85.1
2017-11-04T00:20:17.876Z,85.28
2017-11-04T00:21:28.434Z,85.38
2017-11-04T00:22:39.034Z,85.47
2017-11-04T00:23:49.511Z,85.57
2017-11-04T00:24:59.998Z,85.19
2017-11-04T00:26:10.131Z,85.19
2017-11-04T00:27:20.608Z,85.38
2017-11-04T00:28:30.771Z,85.57
2017-11-04T00:29:40.924Z,85.57
2017-11-04T00:30:51.656Z,85.38
2017-11-04T00:32:02.162Z,85.19
2017-11-04T00:33:12.672Z,85.86
2017-11-04T00:34:23.266Z,85.66
2017-11-04T00:35:33.758Z,85.38
2017-11-04T00:36:44.068Z,85.57
2017-11-04T00:37:54.506Z,86.05
2017-11-04T00:39:05.111Z,86.05
2017-11-04T00:40:15.602Z,86.05
2017-11-04T00:41:25.681Z,85.66
2017-11-04T00:42:36.185Z,85.95
2017-11-04T00:43:46.705Z,85.86
2017-11-04T00:44:57.217Z,85.66
2017-11-04T00:46:07.673Z,86.05
2017-11-04T00:47:18.170Z,85.86
2017-11-04T00:48:28.855Z,85.86
2017-11-04T00:49:39.325Z,86.43
2017-11-04T00:50:49.785Z,85.95
2017-11-04T00:52:00.267Z,85.95
2017-11-04T00:53:10.746Z,85.66
2017-11-04T00:54:20.948Z,86.14
2017-11-04T00:55:31.433Z,85.76
2017-11-04T00:56:41.947Z,85.66
2017-11-04T00:57:52.386Z,85.66
2017-11-04T00:59:02.882Z,85.95
2017-11-04T01:00:13.304Z,86.14
2017-11-04T01:01:23.772Z,85.66
2017-11-04T01:02:33.920Z,86.05
2017-11-04T01:03:44.401Z,86.24
2017-11-04T01:04:54.916Z,85.76
2017-11-04T01:06:05.360Z,86.14
2017-11-04T01:07:15.854Z,86.05
2017-11-04T01:08:26.075Z,85.66
2017-11-04T01:09:36.517Z,85.86
2017-11-04T01:10:47.058Z,85.76
2017-11-04T01:11:57.190Z,86.33
2017-11-04T01:13:07.648Z,86.24
2017-11-04T01:14:18.130Z,85.95
2017-11-04T01:15:28.418Z,85.95
2017-11-04T01:16:38.927Z,86.33
2017-11-04T01:17:49.401Z,86.43
2017-11-04T01:18:59.882Z,86.33
2017-11-04T01:20:10.338Z,86.43
2017-11-04T01:21:20.837Z,86.43
2017-11-04T01:22:31.012Z,86.43
2017-11-04T01:23:41.542Z,86.43
2017-11-04T01:24:51.782Z,86.52
2017-11-04T01:26:02.309Z,86.52
2017-11-04T01:27:12.785Z,86.33
2017-11-04T01:28:23.240Z,86.43
2017-11-04T01:29:33.758Z,86.52
2017-11-04T01:30:44.329Z,86.71
2017-11-04T01:31:54.834Z,86.33
2017-11-04T01:33:05.324Z,86.52
2017-11-04T01:34:15.440Z,86.43
2017-11-04T01:35:26.119Z,86.29
2017-11-04T01:36:36.979Z,86.43
2017-11-04T01:37:47.136Z,86.14
2017-11-04T01:38:57.636Z,86.43
2017-11-04T01:40:08.136Z,86.33
2017-11-04T01:41:18.631Z,86.38
2017-11-04T01:42:28.777Z,86.33
2017-11-04T01:43:39.432Z,86.29
2017-11-04T01:44:49.882Z,86.29
2017-11-04T01:46:00.378Z,86.38
2017-11-04T01:47:10.825Z,86.38
2017-11-04T01:48:21.284Z,86.47
2017-11-04T01:49:31.747Z,86.38
2017-11-04T01:50:42.249Z,86.38
2017-11-04T01:51:52.741Z,86.29
2017-11-04T01:53:03.239Z,86.19
2017-11-04T01:54:13.722Z,86.29
2017-11-04T01:55:24.188Z,86.38
2017-11-04T01:56:34.673Z,86.38
2017-11-04T01:57:45.188Z,86.76
2017-11-04T01:58:55.695Z,86.57
2017-11-04T02:00:06.151Z,86.67
2017-11-04T02:01:16.793Z,86.76
2017-11-04T02:02:27.541Z,86.67
2017-11-04T02:03:38.207Z,86.67
2017-11-04T02:04:48.643Z,86.57
2017-11-04T02:05:59.106Z,86.76
2017-11-04T02:07:09.568Z,86.57
2017-11-04T02:08:20.081Z,86.86
2017-11-04T02:09:30.195Z,86.47
2017-11-04T02:10:40.631Z,86.47
2017-11-04T02:11:51.178Z,86.86
2017-11-04T02:13:01.388Z,86.76
2017-11-04T02:14:11.842Z,86.29
2017-11-04T02:15:22.366Z,86.29
2017-11-04T02:16:33.070Z,86.47
2017-11-04T02:17:43.505Z,86
2017-11-04T02:18:53.998Z,86.29
2017-11-04T02:20:04.474Z,86.1
2017-11-04T02:21:15.146Z,86.76
2017-11-04T02:22:25.645Z,86.86
2017-11-04T02:23:36.106Z,86.86
2017-11-04T02:24:46.587Z,86.47
2017-11-04T02:25:57.071Z,86.76
2017-11-04T02:27:07.228Z,86.67
2017-11-04T02:28:17.685Z,86.76
2017-11-04T02:29:28.144Z,86.19
2017-11-04T02:30:38.353Z,86.1
2017-11-04T02:31:48.876Z,86.29
2017-11-04T02:32:59.236Z,86.76
2017-11-04T02:34:09.708Z,86.38
2017-11-04T02:35:20.150Z,86.47
2017-11-04T02:36:30.843Z,86.86
2017-11-04T02:37:41.321Z,86.38
2017-11-04T02:38:51.775Z,86.86
2017-11-04T02:40:02.366Z,86.47
2017-11-04T02:41:12.821Z,87.24
2017-11-04T02:42:23.026Z,87.34
2017-11-04T02:43:33.573Z,87.05
2017-11-04T02:44:44.067Z,86.95
2017-11-04T02:46:09.070Z,86.67
2017-11-04T02:47:19.541Z,86.67
2017-11-04T02:48:30.200Z,86.76
2017-11-04T02:49:41.009Z,87.14
2017-11-04T02:50:51.570Z,86.95
2017-11-04T02:52:02.204Z,87.24
2017-11-04T02:53:12.964Z,87.24
2017-11-04T02:54:23.612Z,86.86
2017-11-04T02:55:34.092Z,87.05
2017-11-04T02:56:44.136Z,87.24
2017-11-04T02:57:54.167Z,86.67
2017-11-04T02:59:04.706Z,86.57
2017-11-04T03:00:15.175Z,86.67
2017-11-04T03:01:25.627Z,86.76
2017-11-04T03:02:36.120Z,86.57
2017-11-04T03:03:46.601Z,86.76
2017-11-04T03:04:57.049Z,86.57
2017-11-04T03:06:07.762Z,86.76
2017-11-04T03:07:18.130Z,87.14
2017-11-04T03:08:28.678Z,87.05
2017-11-04T03:09:39.115Z,87.05
2017-11-04T03:10:49.689Z,87.05
2017-11-04T03:12:00.135Z,86.95
2017-11-04T03:13:10.575Z,86.86
2017-11-04T03:14:20.692Z,86.57
2017-11-04T03:15:31.133Z,86.95
2017-11-04T03:16:41.615Z,87.34
2017-11-04T03:17:52.056Z,87.14
2017-11-04T03:19:02.498Z,87.05
2017-11-04T03:20:12.926Z,87.1
2017-11-04T03:21:23.430Z,87.1
2017-11-04T03:22:34.062Z,87.01
2017-11-04T03:23:44.508Z,87.01
2017-11-04T03:24:55.078Z,87.29
2017-11-04T03:26:05.570Z,87.29
2017-11-04T03:27:16.058Z,87.29
2017-11-04T03:28:26.497Z,87.48
2017-11-04T03:29:37.124Z,87.48
2017-11-04T03:30:47.605Z,87.29
2017-11-04T03:31:58.144Z,87.57
2017-11-04T03:33:08.656Z,88.24
2017-11-04T03:34:19.112Z,88.34
2017-11-04T03:35:29.550Z,88.15
2017-11-04T03:36:39.990Z,88.15
2017-11-04T03:37:50.240Z,87.95
2017-11-04T03:39:01.647Z,88.15
2017-11-04T03:40:12.067Z,87.86
2017-11-04T03:41:22.494Z,88.34
2017-11-04T03:42:32.944Z,87.95
2017-11-04T03:43:43.449Z,87.95
2017-11-04T03:44:53.926Z,88.34
2017-11-04T03:46:04.596Z,88.05
2017-11-04T03:47:15.139Z,87.86
2017-11-04T03:48:25.586Z,87.95
2017-11-04T03:49:36.030Z,88.34
2017-11-04T03:50:46.493Z,88.34
2017-11-04T03:51:56.923Z,88.05
2017-11-04T03:53:07.629Z,87.95
2017-11-04T03:54:17.735Z,88.15
2017-11-04T03:55:28.298Z,87.86
2017-11-04T03:56:38.731Z,88.15
2017-11-04T03:57:49.235Z,88.24
2017-11-04T03:58:59.682Z,88.43
2017-11-04T04:00:10.172Z,88.05
2017-11-04T04:01:20.615Z,88.05
2017-11-04T04:02:31.082Z,88.05
2017-11-04T04:03:41.532Z,87.95
2017-11-04T04:04:51.964Z,88.15
2017-11-04T04:06:01.980Z,88.48
2017-11-04T04:07:12.459Z,88.57
2017-11-04T04:08:22.899Z,88.57
2017-11-04T04:09:33.421Z,88.43
2017-11-04T04:10:43.924Z,88.39
2017-11-04T04:11:54.438Z,88.57
2017-11-04T04:13:04.892Z,88.43
2017-11-04T04:14:15.359Z,88.43
2017-11-04T04:15:25.837Z,88.53
2017-11-04T04:16:36.276Z,88.62
2017-11-04T04:17:46.736Z,88.62
2017-11-04T04:18:57.186Z,88.57
2017-11-04T04:20:07.619Z,88.2
2017-11-04T04:21:18.107Z,88.53
2017-11-04T04:22:28.537Z,88.39
2017-11-04T04:23:38.990Z,88.48
2017-11-04T04:24:49.514Z,89.14
2017-11-04T04:25:59.989Z,89.19
2017-11-04T04:27:10.484Z,88.53
2017-11-04T04:28:20.947Z,88.62
2017-11-04T04:29:31.076Z,88.53
2017-11-04T04:30:41.602Z,89.09
2017-11-04T04:31:52.072Z,88.34
2017-11-04T04:33:02.623Z,89
2017-11-04T04:34:13.133Z,88.15
2017-11-04T04:35:23.574Z,88.43
2017-11-04T04:36:34.015Z,88.43
2017-11-04T04:37:44.554Z,88.24
2017-11-04T04:38:55.323Z,88.43
2017-11-04T04:40:05.786Z,88.43
2017-11-04T04:41:16.253Z,88.53
2017-11-04T04:42:26.766Z,88.15
2017-11-04T04:43:37.233Z,88.24
2017-11-04T04:44:47.713Z,88.53
2017-11-04T04:45:58.261Z,88.24
2017-11-04T04:47:08.733Z,88.53
2017-11-04T04:48:19.180Z,88.43
2017-11-04T04:49:29.289Z,88.53
2017-11-04T04:50:39.767Z,88.43
2017-11-04T04:51:50.208Z,88.43
2017-11-04T04:53:01.860Z,88.43
2017-11-04T04:54:12.309Z,88.62
2017-11-04T04:55:22.810Z,88.43
2017-11-04T04:56:32.954Z,88.9
2017-11-04T04:57:43.413Z,88.15
2017-11-04T04:58:53.919Z,88.24
2017-11-04T05:00:03.938Z,87.95
2017-11-04T05:01:14.438Z,88.15
2017-11-04T05:02:24.810Z,88.05
2017-11-04T05:03:35.609Z,88.24
2017-11-04T05:04:45.539Z,88.62
2017-11-04T05:05:55.985Z,88.71
2017-11-04T05:07:06.513Z,88.53
2017-11-04T05:08:16.984Z,88.24
2017-11-04T05:09:27.477Z,88.71
2017-11-04T05:10:37.935Z,88.53
2017-11-04T05:11:48.376Z,88.43
2017-11-04T05:12:58.856Z,88.43
2017-11-04T05:14:09.408Z,88.53
2017-11-04T05:15:20.360Z,88.71
2017-11-04T05:16:30.796Z,88.81
2017-11-04T05:17:41.279Z,88.53
2017-11-04T05:18:51.719Z,89.19
2017-11-04T05:20:02.292Z,89
2017-11-04T05:21:12.820Z,88.53
2017-11-04T05:22:23.282Z,89.28
2017-11-04T05:23:33.774Z,89.38
2017-11-04T05:24:44.233Z,89.19
2017-11-04T05:25:54.656Z,88.24
2017-11-04T05:27:04.809Z,88.43
2017-11-04T05:28:15.244Z,88.43
2017-11-04T05:29:25.576Z,88.24
2017-11-04T05:30:36.523Z,88.53
2017-11-04T05:31:47.037Z,88.24
2017-11-04T05:32:57.699Z,88.53
2017-11-04T05:34:08.138Z,88.53
2017-11-04T05:35:18.590Z,88.53
2017-11-04T05:36:28.778Z,88.24
2017-11-04T05:37:39.434Z,88.62
2017-11-04T05:38:49.598Z,88.43
2017-11-04T05:40:00.151Z,88.53
2017-11-04T05:41:10.718Z,89.28
2017-11-04T05:42:21.404Z,88.24
2017-11-04T05:43:31.838Z,88.43
2017-11-04T05:44:42.289Z,88.43
2017-11-04T05:45:52.489Z,88.43
2017-11-04T05:47:02.928Z,88.24
2017-11-04T05:48:13.508Z,88.24
2017-11-04T05:49:23.970Z,88.43
2017-11-04T05:50:34.449Z,88.05
2017-11-04T05:51:44.884Z,88.34
2017-11-04T05:52:55.454Z,88.9
2017-11-04T05:54:05.916Z,88.62
2017-11-04T05:55:16.373Z,88.71
2017-11-04T05:56:26.846Z,88.9
2017-11-04T05:57:37.342Z,89.38
2017-11-04T05:58:47.987Z,89.28
2017-11-04T05:59:58.457Z,89.19
2017-11-04T06:01:08.923Z,89.19
2017-11-04T06:02:19.062Z,89.19
2017-11-04T06:03:29.544Z,89.19
2017-11-04T06:04:40.008Z,89.09
2017-11-04T06:05:50.352Z,89.09
2017-11-04T06:07:00.864Z,89.19
2017-11-04T06:08:11.301Z,89.28
2017-11-04T06:09:21.996Z,89.28
2017-11-04T06:10:32.546Z,89.47
2017-11-04T06:11:43.129Z,89.57
2017-11-04T06:12:53.579Z,89.38
2017-11-04T06:14:04.181Z,89.57
2017-11-04T06:15:14.636Z,89.57
2017-11-04T06:16:25.150Z,89.86
2017-11-04T06:17:35.817Z,89.86
2017-11-04T06:18:46.106Z,89.76
2017-11-04T06:19:56.560Z,90.14
2017-11-04T06:21:07.048Z,89.86
2017-11-04T06:22:17.504Z,89.95
2017-11-04T06:23:27.973Z,90.14
2017-11-04T06:24:38.407Z,90.14
2017-11-04T06:25:48.910Z,89.86
2017-11-04T06:26:59.562Z,89.86
2017-11-04T06:28:10.054Z,89.67
2017-11-04T06:29:20.576Z,89.67
2017-11-04T06:30:31.030Z,89.76
2017-11-04T06:31:41.737Z,89.95
2017-11-04T06:32:52.187Z,89.95
2017-11-04T06:34:02.700Z,89.95
2017-11-04T06:35:13.190Z,89.86
2017-11-04T06:36:23.694Z,89.95
2017-11-04T06:37:34.164Z,89.67
2017-11-04T06:38:44.628Z,89.86
2017-11-04T06:39:54.754Z,90.23
2017-11-04T06:41:05.312Z,90.05
2017-11-04T06:42:15.855Z,89.95
2017-11-04T06:43:26.334Z,89.86
2017-11-04T06:44:37.034Z,89.95
2017-11-04T06:45:47.497Z,89.86
2017-11-04T06:46:57.936Z,89.86
2017-11-04T06:48:08.536Z,89.95
2017-11-04T06:49:19.041Z,89.76
2017-11-04T06:50:29.475Z,89.95
2017-11-04T06:51:40.070Z,89.86
2017-11-04T06:52:50.520Z,90.09
2017-11-04T06:54:01.028Z,90
2017-11-04T06:55:11.500Z,90.09
2017-11-04T06:56:21.963Z,89.8
2017-11-04T06:57:32.389Z,90
2017-11-04T06:58:43.103Z,89.9
2017-11-04T06:59:53.713Z,89.61
2017-11-04T07:01:04.213Z,89.52
2017-11-04T07:02:14.703Z,89.14
2017-11-04T07:03:25.293Z,89.14
2017-11-04T07:04:35.767Z,89.23
2017-11-04T07:05:46.420Z,89.28
2017-11-04T07:06:56.918Z,89.09
2017-11-04T07:08:07.510Z,88.71
2017-11-04T07:09:17.993Z,88.52
2017-11-04T07:10:28.556Z,88.28
2017-11-04T07:11:39.107Z,88.33
2017-11-04T07:12:49.577Z,88.52
2017-11-04T07:13:59.818Z,88.33
2017-11-04T07:15:10.557Z,88.9
2017-11-04T07:16:21.016Z,88.42
2017-11-04T07:17:31.467Z,88.71
2017-11-04T07:18:42.048Z,88.61
2017-11-04T07:19:52.516Z,87.9
2017-11-04T07:21:02.998Z,88.18
2017-11-04T07:22:13.484Z,87.52
2017-11-04T07:23:23.974Z,87.18
2017-11-04T07:24:34.428Z,87.27
2017-11-04T07:25:44.574Z,86.61
2017-11-04T07:26:54.773Z,86.51
2017-11-04T07:28:05.502Z,86.42
2017-11-04T07:29:16.010Z,86.22
2017-11-04T07:30:27.577Z,86.13
2017-11-04T07:31:38.050Z,86.13
2017-11-04T07:32:48.510Z,86.04
2017-11-04T07:33:59.006Z,85.66
2017-11-04T07:35:09.523Z,85.28
2017-11-04T07:36:19.955Z,84.99
2017-11-04T07:37:30.483Z,84.8
2017-11-04T07:38:40.956Z,84.8
2017-11-04T07:39:51.418Z,84.61
2017-11-04T07:41:01.529Z,84.99
2017-11-04T07:42:12.057Z,85.08
2017-11-04T07:43:22.624Z,84.99
2017-11-04T07:44:33.138Z,84.7
2017-11-04T07:45:43.611Z,84.85
2017-11-04T07:46:54.199Z,84.99
2017-11-04T07:48:05.742Z,85.18
2017-11-04T07:49:15.983Z,85.18
2017-11-04T07:50:26.120Z,84.52
2017-11-04T07:51:36.590Z,84.99
2017-11-04T07:52:47.063Z,84.7
2017-11-04T07:53:57.549Z,84.65
2017-11-04T07:55:08.048Z,84.36
2017-11-04T07:56:18.509Z,84.65
2017-11-04T07:57:29.059Z,84.56
2017-11-04T07:58:39.513Z,84.27
2017-11-04T07:59:50.029Z,84.08
2017-11-04T08:01:00.488Z,83.7
2017-11-04T08:02:10.948Z,84.22
2017-11-04T08:03:21.560Z,83.55
2017-11-04T08:04:32.051Z,83.74
2017-11-04T08:05:42.637Z,83.45
2017-11-04T08:06:53.110Z,83.45
2017-11-04T08:08:03.648Z,83.36
2017-11-04T08:09:14.151Z,83.36
2017-11-04T08:10:24.214Z,82.93
2017-11-04T08:11:34.691Z,83.45
2017-11-04T08:12:45.307Z,82.98
2017-11-04T08:13:55.770Z,82.89
2017-11-04T08:15:07.251Z,82.41
2017-11-04T08:16:17.870Z,82.41
2017-11-04T08:17:28.113Z,82.21
2017-11-04T08:18:38.575Z,82.26
2017-11-04T08:19:49.072Z,81.49
2017-11-04T08:20:59.232Z,81.68
2017-11-04T08:22:09.763Z,80.77
2017-11-04T08:23:19.817Z,80.68
2017-11-04T08:24:30.274Z,80.43
2017-11-04T08:25:41.031Z,79.57
2017-11-04T08:26:51.843Z,79.14
2017-11-04T08:28:02.354Z,78.85
2017-11-04T08:29:12.862Z,77.74
2017-11-04T08:30:23.419Z,77.21
2017-11-04T08:31:33.929Z,75.68
2017-11-04T08:32:44.642Z,75.05
2017-11-04T08:33:55.140Z,74.57
2017-11-04T08:35:05.627Z,73.55
2017-11-04T08:36:16.139Z,73.4
2017-11-04T08:37:26.603Z,72.63
2017-11-04T08:38:37.107Z,71.52
2017-11-04T08:39:47.632Z,70.5
2017-11-04T08:40:58.122Z,69.26
2017-11-04T08:42:08.596Z,67.95
2017-11-04T08:43:20.108Z,67.5
2017-11-04T08:44:30.674Z,66.64
2017-11-04T08:45:41.150Z,66.64
2017-11-04T08:46:51.663Z,65.97
2017-11-04T08:48:02.147Z,65.52
2017-11-04T08:49:12.301Z,64.28
2017-11-04T08:50:22.849Z,64.12
2017-11-04T08:51:33.377Z,63.73
2017-11-04T08:52:43.848Z,63.35
2017-11-04T08:53:54.426Z,62.77
2017-11-04T08:55:04.865Z,63.06
2017-11-04T08:56:15.412Z,61.72
2017-11-04T08:57:25.984Z,61.43
2017-11-04T08:58:36.451Z,61.3
2017-11-04T08:59:47.260Z,60.25
2017-11-04T09:00:57.764Z,60.44
2017-11-04T09:02:08.250Z,60.89
2017-11-04T09:03:18.731Z,60.6
2017-11-04T09:04:29.252Z,61.05
2017-11-04T09:05:39.812Z,61.15
2017-11-04T09:06:49.955Z,61.91
2017-11-04T09:08:01.665Z,62.39
2017-11-04T09:09:11.855Z,62.2
2017-11-04T09:10:23.487Z,62.2
2017-11-04T09:11:34.569Z,62.13
2017-11-04T09:12:44.890Z,61.66
2017-11-04T09:13:55.372Z,60.92
2017-11-04T09:15:05.845Z,60.63
2017-11-04T09:16:16.349Z,60.44
2017-11-04T09:17:26.810Z,60.15
2017-11-04T09:18:37.368Z,59.77
2017-11-04T09:19:47.873Z,60.05
2017-11-04T09:20:58.327Z,60.05
2017-11-04T09:22:08.792Z,60.05
2017-11-04T09:23:19.310Z,60.15
2017-11-04T09:24:29.781Z,60.35
2017-11-04T09:25:40.267Z,60.6
2017-11-04T09:26:50.887Z,60.6
2017-11-04T09:28:01.382Z,61.08
2017-11-04T09:29:11.941Z,61.43
2017-11-04T09:30:22.421Z,61.53
2017-11-04T09:31:32.889Z,61.79
2017-11-04T09:32:43.596Z,62.43
2017-11-04T09:33:54.099Z,62.71
2017-11-04T09:35:04.584Z,62.9
2017-11-04T09:36:14.750Z,63.26
2017-11-04T09:37:25.234Z,63.16
2017-11-04T09:38:35.863Z,63.83
2017-11-04T09:39:46.322Z,64.12
2017-11-04T09:40:56.924Z,63.89
2017-11-04T09:42:07.542Z,64.66
2017-11-04T09:43:18.062Z,64.75
2017-11-04T09:44:28.607Z,65.2
2017-11-04T09:45:39.115Z,65.77
2017-11-04T09:46:49.661Z,65.74
2017-11-04T09:48:00.269Z,66.31
2017-11-04T09:49:10.721Z,66.79
2017-11-04T09:50:21.263Z,67.14
2017-11-04T09:51:32.009Z,67.91
2017-11-04T09:52:42.203Z,68.29
2017-11-04T09:53:52.693Z,67.81
2017-11-04T09:55:03.200Z,68.67
2017-11-04T09:56:13.732Z,69.02
2017-11-04T09:57:24.260Z,69.31
2017-11-04T09:58:34.793Z,69.49
2017-11-04T09:59:45.371Z,69.78
2017-11-04T10:00:55.873Z,70.61
2017-11-04T10:02:06.349Z,70.7
2017-11-04T10:03:16.819Z,70.89
2017-11-04T10:04:27.389Z,70.7
2017-11-04T10:05:38.132Z,71.66
2017-11-04T10:06:48.734Z,71.08
2017-11-04T10:07:59.231Z,71.75
2017-11-04T10:09:09.730Z,72.32
2017-11-04T10:10:20.265Z,72.13
2017-11-04T10:11:30.781Z,72.42
2017-11-04T10:12:41.265Z,72.51
2017-11-04T10:13:51.726Z,72.89
2017-11-04T10:15:01.889Z,72.64
2017-11-04T10:16:12.416Z,72.55
2017-11-04T10:17:22.908Z,73.03
2017-11-04T10:18:33.472Z,72.83
2017-11-04T10:19:44.034Z,73.03
2017-11-04T10:20:54.235Z,72.83
2017-11-04T10:22:04.754Z,72.87
2017-11-04T10:23:14.885Z,72.87
2017-11-04T10:24:25.521Z,72.87
2017-11-04T10:25:36.076Z,72.83
2017-11-04T10:26:46.549Z,73.44
2017-11-04T10:27:57.233Z,72.97
2017-11-04T10:29:07.409Z,73.03
2017-11-04T10:30:17.488Z,73.22
2017-11-04T10:31:27.974Z,73.41
2017-11-04T10:32:38.166Z,73.07
2017-11-04T10:34:21.700Z,73.16
2017-11-04T10:35:34.960Z,73.69
2017-11-04T10:36:45.561Z,73.54
2017-11-04T10:37:56.011Z,73.69
2017-11-04T10:39:06.659Z,73.79
2017-11-04T10:40:17.154Z,73.6
2017-11-04T10:41:27.625Z,73.83
2017-11-04T10:42:38.233Z,73.54
2017-11-04T10:43:48.808Z,73.48
2017-11-04T10:44:59.351Z,73.48
2017-11-04T10:46:09.869Z,73.19
2017-11-04T10:47:20.389Z,72.91
2017-11-04T10:48:30.918Z,72.37
2017-11-04T10:49:41.643Z,72.37
2017-11-04T10:50:52.182Z,71.89
2017-11-04T10:52:02.659Z,72.22
2017-11-04T10:53:13.171Z,71.73
2017-11-04T10:54:23.653Z,71.45
2017-11-04T10:55:34.150Z,71.89
2017-11-04T10:56:44.967Z,71.42
2017-11-04T10:57:55.528Z,71.32
2017-11-04T10:59:06.044Z,71.7
2017-11-04T11:00:16.544Z,71.61
2017-11-04T11:01:27.006Z,71.22
2017-11-04T11:02:37.530Z,71.13
2017-11-04T11:03:47.693Z,71.32
2017-11-04T11:04:58.325Z,71.61
2017-11-04T11:06:08.833Z,71.95
2017-11-04T11:07:19.026Z,72.43
2017-11-04T11:08:29.649Z,72.43
2017-11-04T11:09:40.301Z,72.62
2017-11-04T11:10:50.814Z,72.81
2017-11-04T11:12:01.292Z,72.81
2017-11-04T11:13:11.820Z,73.54
2017-11-04T11:14:22.340Z,73.44
2017-11-04T11:15:32.495Z,74.11
2017-11-04T11:16:42.967Z,73.83
2017-11-04T11:17:53.470Z,74.21
2017-11-04T11:19:04.043Z,73.92
2017-11-04T11:20:14.582Z,74.11
2017-11-04T11:21:25.102Z,74.49
2017-11-04T11:22:35.643Z,74.69
2017-11-04T11:23:45.603Z,74.59
2017-11-04T11:24:56.158Z,74.59
2017-11-04T11:26:05.910Z,74.59
2017-11-04T11:27:16.418Z,74.78
2017-11-04T11:28:26.899Z,75.26
2017-11-04T11:29:37.574Z,75.07
2017-11-04T11:30:48.195Z,75.32
2017-11-04T11:31:58.761Z,75.64
2017-11-04T11:33:09.240Z,75.79
2017-11-04T11:34:19.842Z,75.79
2017-11-04T11:35:30.336Z,75.89
2017-11-04T11:36:40.856Z,75.89
2017-11-04T11:37:51.459Z,76.37
2017-11-04T11:39:02.176Z,76.21
2017-11-04T11:40:12.828Z,76.21
2017-11-04T11:41:23.396Z,75.93
2017-11-04T11:42:33.887Z,76.12
2017-11-04T11:43:44.455Z,76.31
2017-11-04T11:44:54.939Z,76.12
2017-11-04T11:46:05.471Z,76.21
2017-11-04T11:47:16.223Z,76.12
2017-11-04T11:48:26.390Z,76.12
2017-11-04T11:49:36.522Z,76.21
2017-11-04T11:51:59.898Z,76.03
2017-11-04T11:53:10.419Z,76.03
2017-11-04T11:54:20.929Z,76.31
2017-11-04T11:55:31.495Z,76.03
2017-11-04T11:56:42.007Z,76.6
2017-11-04T11:57:52.309Z,76.6
2017-11-04T11:59:02.795Z,76.69
2017-11-04T12:00:13.512Z,76.4
2017-11-04T12:01:23.937Z,76.4
2017-11-04T12:02:34.415Z,76.6
2017-11-04T12:03:45.370Z,76.69
2017-11-04T12:04:55.862Z,76.69
2017-11-04T12:06:06.394Z,76.6
2017-11-04T12:07:17.995Z,76.69
2017-11-04T12:08:28.534Z,76.79
2017-11-04T12:09:39.170Z,76.98
2017-11-04T12:10:49.742Z,76.79
2017-11-04T12:12:00.562Z,76.5
2017-11-04T12:13:11.039Z,76.6
2017-11-04T12:14:21.511Z,76.6
2017-11-04T12:15:32.018Z,76.6
2017-11-04T12:16:42.609Z,76.69
2017-11-04T12:17:53.091Z,75.96
2017-11-04T12:19:03.224Z,76.45
2017-11-04T12:20:13.751Z,75.87
2017-11-04T12:21:24.283Z,75.96
2017-11-04T12:22:34.772Z,76.16
2017-11-04T12:23:45.298Z,75.78
2017-11-04T12:24:55.866Z,75.34
2017-11-04T12:26:07.908Z,75.05
2017-11-04T12:27:18.512Z,74.66
2017-11-04T12:28:29.440Z,74.99
2017-11-04T12:29:43.915Z,74.41
2017-11-04T12:30:55.056Z,74.22
2017-11-04T12:32:05.541Z,74.22
2017-11-04T12:33:16.049Z,74.41
2017-11-04T12:34:26.718Z,74.41
2017-11-04T12:35:37.246Z,74.04
2017-11-04T12:36:48.232Z,74.48
2017-11-04T12:37:58.734Z,74.38
2017-11-04T12:39:09.308Z,74.09
2017-11-04T12:40:22.370Z,74.19
2017-11-04T12:41:32.856Z,74.38
2017-11-04T12:42:43.463Z,74.38
2017-11-04T12:43:54.215Z,74.48
2017-11-04T12:45:04.731Z,74.57
2017-11-04T12:46:15.224Z,74.76
2017-11-04T12:47:25.794Z,74.95
2017-11-04T12:48:36.282Z,74.53
2017-11-04T12:49:46.587Z,75.3
2017-11-04T12:50:57.052Z,75.3
2017-11-04T12:52:07.537Z,75.59
2017-11-04T12:53:18.168Z,75.49
2017-11-04T12:54:28.668Z,75.59
2017-11-04T12:55:39.252Z,75.59
2017-11-04T12:56:49.739Z,75.59
2017-11-04T12:58:00.205Z,76.06
2017-11-04T12:59:10.804Z,75.87
2017-11-04T13:00:21.297Z,76.16
2017-11-04T13:01:31.476Z,76.16
2017-11-04T13:02:42.057Z,76.35
2017-11-04T13:03:52.618Z,76.25
2017-11-04T13:05:03.144Z,76.16
2017-11-04T13:06:13.777Z,75.78
2017-11-04T13:07:24.333Z,75.59
2017-11-04T13:08:34.838Z,75.68
2017-11-04T13:09:45.365Z,75.59
2017-11-04T13:10:55.825Z,75.49
2017-11-04T13:12:06.028Z,75.59
2017-11-04T13:13:16.571Z,75.39
2017-11-04T13:14:27.068Z,75.49
2017-11-04T13:15:37.556Z,75.59
2017-11-04T13:16:48.187Z,75.78
2017-11-04T13:17:58.696Z,75.87
2017-11-04T13:19:09.193Z,76.35
2017-11-04T13:20:19.707Z,75.96
2017-11-04T13:21:30.317Z,75.87
2017-11-04T13:22:40.879Z,76.06
2017-11-04T13:23:51.489Z,76.06
2017-11-04T13:25:01.643Z,75.96
2017-11-04T13:26:11.846Z,75.96
2017-11-04T13:27:22.027Z,76.25
2017-11-04T13:28:32.757Z,75.96
2017-11-04T13:29:43.362Z,76.25
2017-11-04T13:30:53.853Z,76.25
2017-11-04T13:32:04.370Z,76.35
2017-11-04T13:33:15.222Z,76.31
2017-11-04T13:34:26.015Z,76.4
2017-11-04T13:35:36.644Z,76.69
2017-11-04T13:36:47.162Z,76.88
2017-11-04T13:37:57.943Z,76.6
2017-11-04T13:39:08.504Z,76.79
2017-11-04T13:40:19.020Z,76.88
2017-11-04T13:41:29.698Z,77.45
2017-11-04T13:42:40.251Z,77.26
2017-11-04T13:43:50.728Z,77.26
2017-11-04T13:45:00.871Z,77.26
2017-11-04T13:46:11.451Z,77.45
2017-11-04T13:47:21.976Z,77.55
2017-11-04T13:48:32.489Z,77.55
2017-11-04T13:49:43.042Z,77.74
2017-11-04T13:50:53.603Z,78.03
2017-11-04T13:52:04.072Z,78.03
2017-11-04T13:53:14.619Z,78.22
2017-11-04T13:54:25.148Z,78.41
2017-11-04T13:55:35.656Z,78.28
2017-11-04T13:56:46.161Z,78.28
2017-11-04T13:57:56.709Z,78.47
2017-11-04T13:59:07.282Z,78.85
2017-11-04T14:00:18.024Z,78.66
2017-11-04T14:01:28.529Z,79.43
2017-11-04T14:02:39.134Z,78.94
2017-11-04T14:03:49.637Z,79.23
2017-11-04T14:04:59.437Z,79.23
2017-11-04T14:06:09.963Z,78.75
2017-11-04T14:07:20.686Z,79.33
2017-11-04T14:08:31.258Z,79.04
2017-11-04T14:09:41.798Z,79.23
2017-11-04T14:10:51.880Z,79.33
2017-11-04T14:12:02.477Z,79.71
2017-11-04T14:13:12.961Z,79.8
2017-11-04T14:14:23.828Z,79.71
2017-11-04T14:15:34.302Z,79.52
2017-11-04T14:16:45.014Z,79.52
2017-11-04T14:17:56.476Z,79.61
2017-11-04T14:19:07.042Z,79.33
2017-11-04T14:20:17.776Z,79.33
2017-11-04T14:21:28.331Z,79.8
2017-11-04T14:22:39.006Z,79.33
2017-11-04T14:23:49.504Z,79.52
2017-11-04T14:25:00.034Z,79.8
2017-11-04T14:26:10.607Z,79.33
2017-11-04T14:27:21.209Z,79.61
2017-11-04T14:28:31.792Z,79.71
2017-11-04T14:29:42.400Z,79.8
2017-11-04T14:30:52.594Z,79.71
2017-11-04T14:32:02.683Z,79.8
2017-11-04T14:33:13.212Z,79.8
2017-11-04T14:34:23.791Z,79.71
2017-11-04T14:35:34.302Z,79.61
2017-11-04T14:36:44.928Z,80.38
2017-11-04T14:37:55.471Z,80.09
2017-11-04T14:39:06.187Z,80.19
2017-11-04T14:40:16.724Z,80.09
2017-11-04T14:41:27.252Z,80.28
2017-11-04T14:42:37.431Z,80.09
2017-11-04T14:43:47.986Z,80.19
2017-11-04T14:44:58.620Z,80.28
2017-11-04T14:46:09.139Z,80.19
2017-11-04T14:47:19.421Z,80.28
2017-11-04T14:48:29.938Z,80.28
2017-11-04T14:49:40.556Z,80.47
2017-11-04T14:50:51.307Z,80.57
2017-11-04T14:52:01.982Z,80.38
2017-11-04T14:53:12.554Z,80.47
2017-11-04T14:54:23.091Z,80.95
2017-11-04T14:55:33.585Z,80.95
2017-11-04T14:56:44.129Z,81.04
2017-11-04T14:57:54.621Z,80.95
2017-11-04T14:59:05.144Z,80.76
2017-11-04T15:00:15.677Z,81.14
2017-11-04T15:01:26.147Z,80.85
2017-11-04T15:02:36.669Z,80.76
2017-11-04T15:03:47.186Z,80.76
2017-11-04T15:04:57.774Z,81.24
2017-11-04T15:06:08.404Z,80.85
2017-11-04T15:07:18.860Z,80.85
2017-11-04T15:08:29.518Z,80.95
2017-11-04T15:09:40.016Z,81.04
2017-11-04T15:10:50.218Z,81.04
2017-11-04T15:12:00.710Z,81.43